• Join FlightAware (Why Join?)
  • Login
  • US Flag 
10:26AM EST


 

Airport Tracker/Info


-or-


 

Live Flight TrackerFlight Track Log ✈ DAL6120 ✈ 18-Apr-2014 ✈ KCVG - KPHL

Flight Track Log - Related Links

Times and Time Zones

All times are in EDT time to prevent confusion due to time zone crossing. See the DAL6120 flight status page for this flight to view local times or setup timezone preferences in your user account.

Time Position Orientation Groundspeed Altitude Reporting Facility
EDT Latitude Longitude Course Direction KTS MPH feet Rate Location/Type
04:11PM 39.0333 -84.6500 63° Northeast 162 186 1,400  Level Cincinnati TRACON
04:12PM 39.0000 -84.6500 180° South 167 192 2,400 1,860 Climbing Cincinnati TRACON
04:13PM 38.9500 -84.6167 153° Southeast 241 277 4,100 2,220 Climbing Cincinnati TRACON
04:14PM 38.9333 -84.5333 104° East 240 276 6,900 2,220 Climbing Cincinnati TRACON
04:15PM 39.0780 -84.1276 44° Northeast  Level FlightAware Approximate
04:15PM 38.9500 -84.4333 78° East 269 310 8,800  Level Cincinnati TRACON
04:16PM 39.1580 -84.0022 47° Northeast  Level FlightAware Approximate
04:16PM 38.9878 -84.3531 59° Northeast 284 327 10,200  Level Indianapolis Center
04:17PM 39.2255 -83.8614 63° Northeast  Level FlightAware Approximate
04:17PM 39.0492 -84.2367 56° Northeast 321 369 11,500  Level Indianapolis Center
04:18PM 39.1072 -84.1283 55° Northeast 354 407 12,600 1,080 Climbing Indianapolis Center
04:19PM 39.1675 -84.0142 56° Northeast 378 435 13,800 1,260 Climbing Indianapolis Center
04:20PM 39.2208 -83.8922 61° Northeast 388 447 15,300 1,440 Climbing Indianapolis Center
04:21PM 39.2678 -83.7667 64° Northeast 389 448 16,800 1,320 Climbing Indianapolis Center
04:22PM 39.3156 -83.6403 64° Northeast 389 448 18,100 1,500 Climbing Indianapolis Center
04:23PM 39.3736 -83.4892 64° Northeast 390 449 19,900 1,560 Climbing Indianapolis Center
04:24PM 39.4206 -83.3622 64° Northeast 392 451 21,400 1,200 Climbing Indianapolis Center
04:25PM 39.4686 -83.2339 64° Northeast 394 453 22,400 780 Climbing Indianapolis Center
04:27PM 39.5194 -83.0989 64° Northeast 412 474 23,100 960 Climbing Indianapolis Center
04:28PM 39.5625 -82.9225 72° East 432 497 24,400 1,080 Climbing Indianapolis Center
04:29PM 39.5850 -82.7692 79° East 433 498 25,400 960 Climbing Indianapolis Center
04:30PM 39.6078 -82.6164 79° East 433 498 26,500 1,320 Climbing Indianapolis Center
04:31PM 39.6311 -82.4619 79° East 435 501 28,100 1,500 Climbing Indianapolis Center
04:32PM 39.6525 -82.3142 79° East 427 491 29,700 1,260 Climbing Indianapolis Center
04:33PM 39.6736 -82.1664 79° East 421 484 30,800 600 Climbing Indianapolis Center
04:34PM 39.6983 -81.9911 80° East 432 497 31,000 60 Climbing Indianapolis Center
04:35PM 39.7250 -81.8056 79° East 476 548 31,000  Level Indianapolis Center
04:36PM 39.7500 -81.6256 80° East 502 578 31,000  Level Indianapolis Center
04:37PM 39.7739 -81.4411 80° East 514 592 31,000  Level Indianapolis Center
04:38PM 39.7969 -81.2806 79° East 514 592 31,000  Level Cleveland Center
04:39PM 39.8208 -81.0981 80° East 514 592 31,000  Level Cleveland Center
04:40PM 39.8453 -80.9192 80° East 507 583 31,000  Level Cleveland Center
04:41PM 39.8683 -80.7383 81° East 508 585 31,000  Level Cleveland Center
04:42PM 39.8967 -80.5186 80° East 517 595 31,000  Level Cleveland Center
04:43PM 39.9247 -80.3381 78° East 514 592 31,000  Level Cleveland Center
04:44PM 39.9722 -80.1642 70° East 517 595 31,000  Level Cleveland Center
04:45PM 40.0183 -79.9881 71° East 518 596 31,000  Level Cleveland Center
04:46PM 40.0750 -79.7756 71° East 520 598 31,000  Level Cleveland Center
04:47PM 40.1194 -79.5997 72° East 520 598 31,000  Level Cleveland Center
04:48PM 40.1614 -79.4278 72° East 505 581 31,000  Level Cleveland Center
04:49PM 40.1842 -79.2306 81° East 498 573 31,000  Level Cleveland Center
04:50PM 40.2017 -79.0531 83° East 498 573 31,000  Level Cleveland Center
04:51PM 40.2217 -78.8744 82° East 501 577 31,000 -120 Level Cleveland Center
04:52PM 40.2408 -78.6936 82° East 504 580 30,800 -840 Descending Cleveland Center
04:53PM 40.2586 -78.5139 83° East 506 582 29,400 -1,860 Descending Cleveland Center
04:54PM 40.2808 -78.2986 82° East 505 581 27,100 -2,040 Descending Cleveland Center
04:55PM 40.2978 -78.1236 83° East 497 572 25,300 -1,020 Descending Cleveland Center
04:56PM 40.3122 -77.9453 84° East 497 572 25,000 -180 Descending Cleveland Center
04:57PM 40.3100 -77.7672 91° East 497 572 25,000 -240 Level Cleveland Center
04:58PM 40.3094 -77.5878 90° East 499 574 24,600 -840 Descending Cleveland Center
04:59PM 40.3058 -77.3761 91° East 494 568 23,400 -1,020 Descending Cleveland Center
05:00PM 40.3056 -77.3061 90° East 497 572 23,000 -960 Descending New York Center
05:01PM 40.2992 -77.1206 93° East 482 555 21,900 -1,260 Descending New York Center
05:02PM 40.2783 -76.9606 100° East 459 528 20,500 -1,800 Descending New York Center
05:03PM 40.2517 -76.7950 102° East 459 528 18,400 -1,320 Descending New York Center
05:04PM 40.2244 -76.6267 102° East 440 506 17,900 -960 Descending New York Center
05:05PM 40.2008 -76.4753 101° East 428 493 16,500 -1,680 Descending New York Center
05:06PM 40.1767 -76.3239 102° East 423 487 14,600 -1,740 Descending New York Center
05:07PM 40.1556 -76.1944 102° East 417 480 13,100 -1,920 Descending New York Center
05:08PM 40.1328 -76.0517 102° East 382 440 10,800 -1,860 Descending New York Center
05:09PM 40.1147 -75.9417 102° East 333 383 9,400 -1,500 Descending New York Center
05:10PM 40.0944 -75.8369 104° East 296 341 7,900 -1,500 Descending New York Center
05:11PM 40.0778 -75.7353 102° East 291 335 6,500 -900 Descending New York Center
05:12PM 40.0733 -75.6400 93° East 273 314 6,100 -240 Descending New York Center
05:13PM 40.0711 -75.5450 92° East 273 314 6,100  Level New York Center
05:14PM 40.0647 -75.4442 95° East 278 320 6,100  Level New York Center
05:15PM 40.0583 -75.3433 95° East 278 320 6,100  Level New York Center
05:16PM 40.0667 -75.2833 80° East 281 323 6,100 -120 Level Philadelphia TRACON
05:16PM 40.0333 -75.2000 118° Southeast 250 288 6,000 -60 Descending Philadelphia TRACON
05:17PM 40.0000 -75.1167 118° Southeast 214 246 6,000 -480 Level Philadelphia TRACON
05:19PM 40.0000 -75.0500 90° East 231 266 5,100 -720 Descending Philadelphia TRACON
05:20PM 40.0000 -74.9667 90° East 204 235 4,500 -900 Descending Philadelphia TRACON
05:21PM 39.9333 -74.9667 180° South 197 227 3,400 -780 Descending Philadelphia TRACON
05:22PM 39.9167 -75.0167 247° West 188 216 3,000 -660 Descending Philadelphia TRACON
05:23PM 39.9000 -75.0833 252° West 197 227 2,200 -840 Descending Philadelphia TRACON
05:24PM 39.9000 -75.1333 270° West 139 160 1,400 -840 Descending Philadelphia TRACON
05:25PM 39.8833 -75.1833 247° West 144 166 600 -840 Descending Philadelphia TRACON